sensor_id;sensor_type;location;lat;lon;timestamp;pressure;altitude;pressure_sealevel;temperature;humidity
68628;BME280;55611;48.602;9.490;2023-02-03T00:02:01;98120;;;8.9;61.5
68628;BME280;55611;48.602;9.490;2023-02-03T00:04:32;98130;;;8.8;61.5
68628;BME280;55611;48.602;9.490;2023-02-03T00:07:02;98120;;;8.9;61.5
68628;BME280;55611;48.602;9.490;2023-02-03T00:09:33;98120;;;8.8;61.5
68628;BME280;55611;48.602;9.490;2023-02-03T00:12:03;98130;;;8.8;61.5
68628;BME280;55611;48.602;9.490;2023-02-03T00:14:34;98130;;;8.8;61.5
68628;BME280;55611;48.602;9.490;2023-02-03T00:17:04;98110;;;8.8;61.5
68628;BME280;55611;48.602;9.490;2023-02-03T00:19:35;98100;;;8.7;61.5
68628;BME280;55611;48.602;9.490;2023-02-03T00:22:05;98110;;;8.7;61.5
68628;BME280;55611;48.602;9.490;2023-02-03T00:24:36;98110;;;8.7;61.5
68628;BME280;55611;48.602;9.490;2023-02-03T00:27:06;98080;;;8.8;61.5
68628;BME280;55611;48.602;9.490;2023-02-03T00:29:37;98120;;;8.8;61.5
68628;BME280;55611;48.602;9.490;2023-02-03T00:32:07;98130;;;8.8;61.5
68628;BME280;55611;48.602;9.490;2023-02-03T00:34:38;98130;;;8.8;61.5
68628;BME280;55611;48.602;9.490;2023-02-03T00:37:11;98120;;;8.8;61.5
68628;BME280;55611;48.602;9.490;2023-02-03T00:39:39;98120;;;8.8;61.5
68628;BME280;55611;48.602;9.490;2023-02-03T00:42:10;98120;;;8.7;61.5
68628;BME280;55611;48.602;9.490;2023-02-03T00:44:40;98130;;;8.8;61.5
68628;BME280;55611;48.602;9.490;2023-02-03T00:47:11;98110;;;8.8;61.5
68628;BME280;55611;48.602;9.490;2023-02-03T00:49:41;98110;;;8.7;61.5
68628;BME280;55611;48.602;9.490;2023-02-03T00:52:12;98100;;;8.7;61.5
68628;BME280;55611;48.602;9.490;2023-02-03T00:54:42;98110;;;8.7;61.5
68628;BME280;55611;48.602;9.490;2023-02-03T00:57:13;98120;;;8.8;61.5
68628;BME280;55611;48.602;9.490;2023-02-03T00:59:43;98130;;;8.7;61.5
68628;BME280;55611;48.602;9.490;2023-02-03T01:02:14;98120;;;8.6;61.5
68628;BME280;55611;48.602;9.490;2023-02-03T01:04:44;98150;;;8.7;61.5
68628;BME280;55611;48.602;9.490;2023-02-03T01:07:15;98150;;;8.7;61.5
68628;BME280;55611;48.602;9.490;2023-02-03T01:09:45;98110;;;8.7;61.5
68628;BME280;55611;48.602;9.490;2023-02-03T01:12:16;98130;;;8.6;61.5
68628;BME280;55611;48.602;9.490;2023-02-03T01:17:17;98130;;;8.7;61.5
68628;BME280;55611;48.602;9.490;2023-02-03T01:19:49;98140;;;8.6;61.5
68628;BME280;55611;48.602;9.490;2023-02-03T01:22:18;98150;;;8.7;61.5
68628;BME280;55611;48.602;9.490;2023-02-03T01:24:48;98150;;;8.7;61.5
68628;BME280;55611;48.602;9.490;2023-02-03T01:27:19;98150;;;8.6;61.5
68628;BME280;55611;48.602;9.490;2023-02-03T01:29:49;98110;;;8.6;61.5
68628;BME280;55611;48.602;9.490;2023-02-03T01:32:20;98100;;;8.6;61.5
68628;BME280;55611;48.602;9.490;2023-02-03T01:34:50;98060;;;8.7;61.5
68628;BME280;55611;48.602;9.490;2023-02-03T01:37:21;98070;;;8.6;61.5
68628;BME280;55611;48.602;9.490;2023-02-03T01:39:51;98070;;;8.7;61.5
68628;BME280;55611;48.602;9.490;2023-02-03T01:42:22;98100;;;8.7;61.5
68628;BME280;55611;48.602;9.490;2023-02-03T01:44:52;98120;;;8.6;61.5
68628;BME280;55611;48.602;9.490;2023-02-03T01:47:25;98100;;;8.7;61.5
68628;BME280;55611;48.602;9.490;2023-02-03T01:49:56;98100;;;8.7;61.5
68628;BME280;55611;48.602;9.490;2023-02-03T01:52:24;98080;;;8.7;61.5
68628;BME280;55611;48.602;9.490;2023-02-03T01:54:56;98060;;;8.7;61.5
68628;BME280;55611;48.602;9.490;2023-02-03T01:57:30;98070;;;8.7;61.5
68628;BME280;55611;48.602;9.490;2023-02-03T01:59:56;98060;;;8.7;61.5
68628;BME280;55611;48.602;9.490;2023-02-03T02:02:26;98050;;;8.7;61.5
68628;BME280;55611;48.602;9.490;2023-02-03T02:05:31;98060;;;8.8;61.5
68628;BME280;55611;48.602;9.490;2023-02-03T02:07:27;98060;;;8.8;61.5
68628;BME280;55611;48.602;9.490;2023-02-03T02:09:58;98070;;;8.7;61.5
68628;BME280;55611;48.602;9.490;2023-02-03T02:12:28;98090;;;8.7;61.5
68628;BME280;55611;48.602;9.490;2023-02-03T02:14:59;98070;;;8.6;61.5
68628;BME280;55611;48.602;9.490;2023-02-03T02:17:41;98100;;;8.7;61.5
68628;BME280;55611;48.602;9.490;2023-02-03T02:22:36;98070;;;8.6;61.5
68628;BME280;55611;48.602;9.490;2023-02-03T02:25:05;98060;;;8.7;61.5
68628;BME280;55611;48.602;9.490;2023-02-03T02:27:44;98040;;;8.6;61.5
68628;BME280;55611;48.602;9.490;2023-02-03T02:30:06;98050;;;8.7;61.5
68628;BME280;55611;48.602;9.490;2023-02-03T02:32:35;98030;;;8.7;61.5
68628;BME280;55611;48.602;9.490;2023-02-03T02:35:09;98020;;;8.7;61.5
68628;BME280;55611;48.602;9.490;2023-02-03T02:37:37;98010;;;8.7;61.5
68628;BME280;55611;48.602;9.490;2023-02-03T02:40:36;98020;;;8.7;61.5
68628;BME280;55611;48.602;9.490;2023-02-03T02:42:38;98040;;;8.7;61.5
68628;BME280;55611;48.602;9.490;2023-02-03T02:47:35;98030;;;8.8;61.5
68628;BME280;55611;48.602;9.490;2023-02-03T02:50:10;98030;;;8.8;61.5
68628;BME280;55611;48.602;9.490;2023-02-03T02:52:37;98010;;;8.8;61.5
68628;BME280;55611;48.602;9.490;2023-02-03T02:55:12;97990;;;8.9;61.5
68628;BME280;55611;48.602;9.490;2023-02-03T02:57:37;97980;;;8.8;61.5
68628;BME280;55611;48.602;9.490;2023-02-03T03:00:08;97980;;;8.8;61.5
68628;BME280;55611;48.602;9.490;2023-02-03T03:02:39;98010;;;8.8;61.5
68628;BME280;55611;48.602;9.490;2023-02-03T03:05:09;98030;;;8.8;61.5
68628;BME280;55611;48.602;9.490;2023-02-03T03:07:41;98020;;;8.9;61.5
68628;BME280;55611;48.602;9.490;2023-02-03T03:10:11;98010;;;8.9;61.5
68628;BME280;55611;48.602;9.490;2023-02-03T03:12:43;98000;;;9;61.5
68628;BME280;55611;48.602;9.490;2023-02-03T03:15:13;98040;;;9;61.5
68628;BME280;55611;48.602;9.490;2023-02-03T03:17:43;98010;;;8.9;62
68628;BME280;55611;48.602;9.490;2023-02-03T03:22:44;98010;;;8.9;61.5
68628;BME280;55611;48.602;9.490;2023-02-03T03:25:14;98000;;;8.9;61.5
68628;BME280;55611;48.602;9.490;2023-02-03T03:27:46;98020;;;8.9;61.5
68628;BME280;55611;48.602;9.490;2023-02-03T03:30:16;98000;;;8.9;61.5
68628;BME280;55611;48.602;9.490;2023-02-03T03:32:45;98010;;;9;61.5
68628;BME280;55611;48.602;9.490;2023-02-03T03:35:15;98010;;;9;61.5
68628;BME280;55611;48.602;9.490;2023-02-03T03:37:55;98010;;;9;61.5
68628;BME280;55611;48.602;9.490;2023-02-03T03:40:19;98010;;;9;61.5
68628;BME280;55611;48.602;9.490;2023-02-03T03:42:49;98020;;;9;61.5
68628;BME280;55611;48.602;9.490;2023-02-03T03:45:18;98020;;;9;61.5
68628;BME280;55611;48.602;9.490;2023-02-03T03:48:53;98050;;;9;61.5
68628;BME280;55611;48.602;9.490;2023-02-03T03:50:19;98080;;;9;61.5
68628;BME280;55611;48.602;9.490;2023-02-03T03:52:49;98060;;;9;61.5
68628;BME280;55611;48.602;9.490;2023-02-03T03:55:19;98080;;;9;61.5
68628;BME280;55611;48.602;9.490;2023-02-03T03:57:58;98080;;;9;61.5
68628;BME280;55611;48.602;9.490;2023-02-03T04:00:20;98040;;;8.9;62
68628;BME280;55611;48.602;9.490;2023-02-03T04:02:51;98100;;;8.9;62
68628;BME280;55611;48.602;9.490;2023-02-03T04:05:22;98070;;;9;61.5
68628;BME280;55611;48.602;9.490;2023-02-03T04:07:52;98100;;;9;62
68628;BME280;55611;48.602;9.490;2023-02-03T04:10:26;98100;;;9;62
68628;BME280;55611;48.602;9.490;2023-02-03T04:12:53;98100;;;9;62
68628;BME280;55611;48.602;9.490;2023-02-03T04:15:23;98110;;;9;61.5
68628;BME280;55611;48.602;9.490;2023-02-03T04:17:54;98110;;;9;61.5
68628;BME280;55611;48.602;9.490;2023-02-03T04:20:24;98100;;;9;61.5
68628;BME280;55611;48.602;9.490;2023-02-03T04:22:55;98070;;;9;61.5
68628;BME280;55611;48.602;9.490;2023-02-03T04:25:25;98090;;;9;61.5
68628;BME280;55611;48.602;9.490;2023-02-03T04:27:56;98070;;;9;61.5
68628;BME280;55611;48.602;9.490;2023-02-03T04:30:27;98080;;;9;61.5
68628;BME280;55611;48.602;9.490;2023-02-03T04:32:57;98050;;;9;61.5
68628;BME280;55611;48.602;9.490;2023-02-03T04:35:28;98050;;;8.9;61.5
68628;BME280;55611;48.602;9.490;2023-02-03T04:37:58;98080;;;8.9;61.5
68628;BME280;55611;48.602;9.490;2023-02-03T04:40:28;98070;;;8.9;61.5
68628;BME280;55611;48.602;9.490;2023-02-03T04:43:04;98080;;;8.9;61.5
68628;BME280;55611;48.602;9.490;2023-02-03T04:45:30;98080;;;8.8;61.5
68628;BME280;55611;48.602;9.490;2023-02-03T04:48:00;98050;;;8.8;61.5
68628;BME280;55611;48.602;9.490;2023-02-03T04:50:31;98050;;;8.8;61.5
68628;BME280;55611;48.602;9.490;2023-02-03T04:53:01;98040;;;8.8;61.5
68628;BME280;55611;48.602;9.490;2023-02-03T04:55:32;98050;;;8.7;61.5
68628;BME280;55611;48.602;9.490;2023-02-03T04:58:02;98030;;;8.8;61
68628;BME280;55611;48.602;9.490;2023-02-03T05:00:33;98060;;;8.9;61
68628;BME280;55611;48.602;9.490;2023-02-03T05:03:03;98030;;;8.8;61
68628;BME280;55611;48.602;9.490;2023-02-03T05:05:34;98040;;;8.9;61
68628;BME280;55611;48.602;9.490;2023-02-03T05:08:04;98050;;;9;61
68628;BME280;55611;48.602;9.490;2023-02-03T05:10:35;98040;;;8.9;61.5
68628;BME280;55611;48.602;9.490;2023-02-03T05:13:05;98020;;;8.9;61.5
68628;BME280;55611;48.602;9.490;2023-02-03T05:15:36;98040;;;9;61.5
68628;BME280;55611;48.602;9.490;2023-02-03T05:18:06;98040;;;9;61.5
68628;BME280;55611;48.602;9.490;2023-02-03T05:20:37;98060;;;8.9;61.5
68628;BME280;55611;48.602;9.490;2023-02-03T05:23:07;98060;;;8.9;61.5
68628;BME280;55611;48.602;9.490;2023-02-03T05:25:38;98060;;;8.8;61.5
68628;BME280;55611;48.602;9.490;2023-02-03T05:28:08;98070;;;8.8;61.5
68628;BME280;55611;48.602;9.490;2023-02-03T05:30:39;98090;;;8.8;61.5
68628;BME280;55611;48.602;9.490;2023-02-03T05:33:09;98090;;;8.8;61
68628;BME280;55611;48.602;9.490;2023-02-03T05:35:40;98080;;;8.7;61
68628;BME280;55611;48.602;9.490;2023-02-03T05:38:10;98080;;;8.6;61
68628;BME280;55611;48.602;9.490;2023-02-03T05:40:41;98070;;;8.6;61
68628;BME280;55611;48.602;9.490;2023-02-03T05:43:11;98070;;;8.5;61
68628;BME280;55611;48.602;9.490;2023-02-03T05:45:42;98060;;;8.5;61.5
68628;BME280;55611;48.602;9.490;2023-02-03T05:48:12;98070;;;8.5;61.5
68628;BME280;55611;48.602;9.490;2023-02-03T05:50:43;98080;;;8.4;61.5
68628;BME280;55611;48.602;9.490;2023-02-03T05:53:13;98070;;;8.5;61
68628;BME280;55611;48.602;9.490;2023-02-03T05:55:44;98090;;;8.5;61
68628;BME280;55611;48.602;9.490;2023-02-03T05:58:15;98080;;;8.5;61
68628;BME280;55611;48.602;9.490;2023-02-03T06:00:45;98070;;;8.4;61
68628;BME280;55611;48.602;9.490;2023-02-03T06:03:15;98070;;;8.4;61
68628;BME280;55611;48.602;9.490;2023-02-03T06:05:46;98070;;;8.4;61
68628;BME280;55611;48.602;9.490;2023-02-03T06:08:17;98090;;;8.3;61
68628;BME280;55611;48.602;9.490;2023-02-03T06:10:47;98060;;;8.3;61
68628;BME280;55611;48.602;9.490;2023-02-03T06:13:18;98060;;;8.2;61
68628;BME280;55611;48.602;9.490;2023-02-03T06:15:48;98060;;;8.3;61
68628;BME280;55611;48.602;9.490;2023-02-03T06:18:19;98070;;;8.3;61
68628;BME280;55611;48.602;9.490;2023-02-03T06:20:49;98080;;;8.3;61
68628;BME280;55611;48.602;9.490;2023-02-03T06:23:20;98070;;;8.3;61
68628;BME280;55611;48.602;9.490;2023-02-03T06:25:50;98070;;;8.3;61.5
68628;BME280;55611;48.602;9.490;2023-02-03T06:28:21;98060;;;8.3;61.5
68628;BME280;55611;48.602;9.490;2023-02-03T06:30:51;98060;;;8.4;61.5
68628;BME280;55611;48.602;9.490;2023-02-03T06:33:22;98050;;;8.5;61.5
68628;BME280;55611;48.602;9.490;2023-02-03T06:35:53;98050;;;8.5;61.5
68628;BME280;55611;48.602;9.490;2023-02-03T06:38:23;98060;;;8.5;61.5
68628;BME280;55611;48.602;9.490;2023-02-03T06:40:53;98070;;;8.5;61.5
68628;BME280;55611;48.602;9.490;2023-02-03T06:43:24;98050;;;8.5;61.5
68628;BME280;55611;48.602;9.490;2023-02-03T06:45:54;98040;;;8.6;61.5
68628;BME280;55611;48.602;9.490;2023-02-03T06:48:25;98050;;;8.6;61.5
68628;BME280;55611;48.602;9.490;2023-02-03T06:50:55;98050;;;8.6;61.5
68628;BME280;55611;48.602;9.490;2023-02-03T06:53:26;98050;;;8.7;61.5
68628;BME280;55611;48.602;9.490;2023-02-03T06:55:56;98050;;;8.7;61.5
68628;BME280;55611;48.602;9.490;2023-02-03T06:58:27;98060;;;8.7;61.5
68628;BME280;55611;48.602;9.490;2023-02-03T07:00:57;98060;;;8.8;61.5
68628;BME280;55611;48.602;9.490;2023-02-03T07:03:28;98030;;;8.8;61.5
68628;BME280;55611;48.602;9.490;2023-02-03T07:05:58;98010;;;8.8;61.5
68628;BME280;55611;48.602;9.490;2023-02-03T07:08:29;98010;;;8.8;61.5
68628;BME280;55611;48.602;9.490;2023-02-03T07:10:59;97990;;;8.9;61.5
68628;BME280;55611;48.602;9.490;2023-02-03T07:13:30;98010;;;8.8;61.5
68628;BME280;55611;48.602;9.490;2023-02-03T07:16:01;98010;;;8.8;61.5
68628;BME280;55611;48.602;9.490;2023-02-03T07:18:31;98020;;;8.8;61.5
68628;BME280;55611;48.602;9.490;2023-02-03T07:21:03;98000;;;8.9;61.5
68628;BME280;55611;48.602;9.490;2023-02-03T07:23:32;98010;;;8.9;61.5
68628;BME280;55611;48.602;9.490;2023-02-03T07:26:03;98030;;;8.9;61.5
68628;BME280;55611;48.602;9.490;2023-02-03T07:28:33;98030;;;8.9;61.5
68628;BME280;55611;48.602;9.490;2023-02-03T07:31:04;98040;;;9;61.5
68628;BME280;55611;48.602;9.490;2023-02-03T07:33:34;98010;;;9;61.5
68628;BME280;55611;48.602;9.490;2023-02-03T07:36:05;97990;;;9;61.5
68628;BME280;55611;48.602;9.490;2023-02-03T07:38:35;98000;;;9;61.5
68628;BME280;55611;48.602;9.490;2023-02-03T07:41:06;98010;;;9;61.5
68628;BME280;55611;48.602;9.490;2023-02-03T07:43:36;97990;;;8.9;61.5
68628;BME280;55611;48.602;9.490;2023-02-03T07:46:07;98030;;;9;61.5
68628;BME280;55611;48.602;9.490;2023-02-03T07:48:37;98030;;;9;61.5
68628;BME280;55611;48.602;9.490;2023-02-03T07:51:08;98020;;;9;61.5
68628;BME280;55611;48.602;9.490;2023-02-03T07:53:38;98030;;;9;61.5
68628;BME280;55611;48.602;9.490;2023-02-03T07:56:09;98050;;;8.9;62
68628;BME280;55611;48.602;9.490;2023-02-03T07:58:39;98070;;;8.9;62
68628;BME280;55611;48.602;9.490;2023-02-03T08:01:11;98060;;;9;62
68628;BME280;55611;48.602;9.490;2023-02-03T08:03:40;98060;;;9;62
68628;BME280;55611;48.602;9.490;2023-02-03T08:06:11;98080;;;9;61.5
68628;BME280;55611;48.602;9.490;2023-02-03T08:08:41;98090;;;8.8;61.5
68628;BME280;55611;48.602;9.490;2023-02-03T08:13:42;98100;;;8.8;61.5
68628;BME280;55611;48.602;9.490;2023-02-03T08:16:13;98100;;;8.8;61.5
68628;BME280;55611;48.602;9.490;2023-02-03T08:18:43;98130;;;8.8;61.5
68628;BME280;55611;48.602;9.490;2023-02-03T08:21:14;98130;;;8.9;61.5
68628;BME280;55611;48.602;9.490;2023-02-03T08:23:44;98130;;;8.9;61.5
68628;BME280;55611;48.602;9.490;2023-02-03T08:26:15;98100;;;8.9;61.5
68628;BME280;55611;48.602;9.490;2023-02-03T08:28:47;98110;;;8.8;61.5
68628;BME280;55611;48.602;9.490;2023-02-03T08:31:16;98090;;;8.9;61.5
68628;BME280;55611;48.602;9.490;2023-02-03T08:33:46;98090;;;8.8;61.5
68628;BME280;55611;48.602;9.490;2023-02-03T08:36:17;98110;;;8.7;61.5
68628;BME280;55611;48.602;9.490;2023-02-03T08:38:47;98100;;;8.6;61.5
68628;BME280;55611;48.602;9.490;2023-02-03T08:41:18;98090;;;8.2;62
68628;BME280;55611;48.602;9.490;2023-02-03T08:43:48;98100;;;8.1;62
68628;BME280;55611;48.602;9.490;2023-02-03T08:46:19;98090;;;8.1;62
68628;BME280;55611;48.602;9.490;2023-02-03T08:48:49;98090;;;8;62
68628;BME280;55611;48.602;9.490;2023-02-03T08:51:20;98100;;;8;62
68628;BME280;55611;48.602;9.490;2023-02-03T08:53:51;98100;;;8.1;62
68628;BME280;55611;48.602;9.490;2023-02-03T08:56:21;98110;;;8.1;62
68628;BME280;55611;48.602;9.490;2023-02-03T08:58:52;98120;;;8.1;62
68628;BME280;55611;48.602;9.490;2023-02-03T09:01:22;98120;;;8.3;62
68628;BME280;55611;48.602;9.490;2023-02-03T09:03:53;98100;;;8.4;62
68628;BME280;55611;48.602;9.490;2023-02-03T09:06:23;98100;;;8.6;61.5
68628;BME280;55611;48.602;9.490;2023-02-03T09:08:54;98100;;;8.6;61.5
68628;BME280;55611;48.602;9.490;2023-02-03T09:11:24;98110;;;8.6;61
68628;BME280;55611;48.602;9.490;2023-02-03T09:13:55;98110;;;8.6;61
68628;BME280;55611;48.602;9.490;2023-02-03T09:16:25;98130;;;8.7;61
68628;BME280;55611;48.602;9.490;2023-02-03T09:18:56;98110;;;8.7;61.5
68628;BME280;55611;48.602;9.490;2023-02-03T09:21:26;98100;;;8.7;61.5
68628;BME280;55611;48.602;9.490;2023-02-03T09:23:59;98110;;;8.7;61.5
68628;BME280;55611;48.602;9.490;2023-02-03T09:26:27;98110;;;8.7;61.5
68628;BME280;55611;48.602;9.490;2023-02-03T09:28:58;98100;;;8.9;61.5
68628;BME280;55611;48.602;9.490;2023-02-03T09:31:28;98080;;;8.9;61.5
68628;BME280;55611;48.602;9.490;2023-02-03T09:33:59;98080;;;8.9;61.5
68628;BME280;55611;48.602;9.490;2023-02-03T09:36:32;98090;;;8.9;61.5
68628;BME280;55611;48.602;9.490;2023-02-03T09:39:00;98090;;;8.9;61.5
68628;BME280;55611;48.602;9.490;2023-02-03T09:41:50;98090;;;9;61.5
68628;BME280;55611;48.602;9.490;2023-02-03T09:44:03;98100;;;9.1;61.5
68628;BME280;55611;48.602;9.490;2023-02-03T09:46:33;98120;;;9;61.5
68628;BME280;55611;48.602;9.490;2023-02-03T09:49:06;98110;;;8.9;61.5
68628;BME280;55611;48.602;9.490;2023-02-03T09:51:35;98110;;;9;61.5
68628;BME280;55611;48.602;9.490;2023-02-03T09:54:04;98100;;;9;61.5
68628;BME280;55611;48.602;9.490;2023-02-03T09:56:34;98100;;;8.9;61.5
68628;BME280;55611;48.602;9.490;2023-02-03T09:59:04;98100;;;9;61.5
68628;BME280;55611;48.602;9.490;2023-02-03T10:01:43;98090;;;9.1;61.5
68628;BME280;55611;48.602;9.490;2023-02-03T10:04:12;98090;;;9.1;61.5
68628;BME280;55611;48.602;9.490;2023-02-03T10:06:37;98090;;;9.1;61.5
68628;BME280;55611;48.602;9.490;2023-02-03T10:09:10;98080;;;9.2;62
68628;BME280;55611;48.602;9.490;2023-02-03T10:14:15;98050;;;9.3;62
68628;BME280;55611;48.602;9.490;2023-02-03T10:16:43;98050;;;9.3;62
68628;BME280;55611;48.602;9.490;2023-02-03T10:19:10;98040;;;9.3;62
68628;BME280;55611;48.602;9.490;2023-02-03T10:21:40;98030;;;9.4;62
68628;BME280;55611;48.602;9.490;2023-02-03T10:24:12;98040;;;9.4;62
68628;BME280;55611;48.602;9.490;2023-02-03T10:26:40;98040;;;9.5;61.5
68628;BME280;55611;48.602;9.490;2023-02-03T10:29:19;98060;;;9.5;62
68628;BME280;55611;48.602;9.490;2023-02-03T10:31:41;98090;;;9.6;62
68628;BME280;55611;48.602;9.490;2023-02-03T10:34:12;98070;;;9.6;61.5
68628;BME280;55611;48.602;9.490;2023-02-03T10:36:57;98070;;;9.7;61.5
68628;BME280;55611;48.602;9.490;2023-02-03T10:39:16;98090;;;9.7;62
68628;BME280;55611;48.602;9.490;2023-02-03T10:41:43;98070;;;9.7;62
68628;BME280;55611;48.602;9.490;2023-02-03T10:44:13;98080;;;9.7;62
68628;BME280;55611;48.602;9.490;2023-02-03T10:46:44;98080;;;9.8;62
68628;BME280;55611;48.602;9.490;2023-02-03T10:49:14;98090;;;9.8;62
68628;BME280;55611;48.602;9.490;2023-02-03T10:51:49;98070;;;9.7;62
68628;BME280;55611;48.602;9.490;2023-02-03T10:54:31;98090;;;9.7;62
68628;BME280;55611;48.602;9.490;2023-02-03T10:56:46;98070;;;9.7;62
68628;BME280;55611;48.602;9.490;2023-02-03T10:59:26;98080;;;9.8;62
68628;BME280;55611;48.602;9.490;2023-02-03T11:01:47;98040;;;9.9;62
68628;BME280;55611;48.602;9.490;2023-02-03T11:04:22;98020;;;9.8;62
68628;BME280;55611;48.602;9.490;2023-02-03T11:06:52;98020;;;9.7;62
68628;BME280;55611;48.602;9.490;2023-02-03T11:09:35;98040;;;9.7;61.5
68628;BME280;55611;48.602;9.490;2023-02-03T11:11:59;98030;;;9.6;61.5
68628;BME280;55611;48.602;9.490;2023-02-03T11:14:19;98040;;;9.7;61.5
68628;BME280;55611;48.602;9.490;2023-02-03T11:16:50;98030;;;9.7;61.5
68628;BME280;55611;48.602;9.490;2023-02-03T11:19:20;98020;;;9.8;61.5
68628;BME280;55611;48.602;9.490;2023-02-03T11:21:52;98020;;;9.9;62
68628;BME280;55611;48.602;9.490;2023-02-03T11:24:24;98020;;;9.9;62
68628;BME280;55611;48.602;9.490;2023-02-03T11:26:53;98030;;;9.9;62
68628;BME280;55611;48.602;9.490;2023-02-03T11:29:24;98020;;;10;62
68628;BME280;55611;48.602;9.490;2023-02-03T11:31:54;98010;;;10;62
68628;BME280;55611;48.602;9.490;2023-02-03T11:34:27;98000;;;9.9;62
68628;BME280;55611;48.602;9.490;2023-02-03T11:36:54;98030;;;10;62
68628;BME280;55611;48.602;9.490;2023-02-03T11:39:26;98020;;;10;62
68628;BME280;55611;48.602;9.490;2023-02-03T11:41:55;98020;;;10;62
68628;BME280;55611;48.602;9.490;2023-02-03T11:44:27;98000;;;10;62
68628;BME280;55611;48.602;9.490;2023-02-03T11:47:01;98020;;;10;62
68628;BME280;55611;48.602;9.490;2023-02-03T11:49:45;98010;;;9.9;62
68628;BME280;55611;48.602;9.490;2023-02-03T11:52:02;98030;;;10;62
68628;BME280;55611;48.602;9.490;2023-02-03T11:55:03;98010;;;9.9;62
68628;BME280;55611;48.602;9.490;2023-02-03T11:57:02;98020;;;9.8;62
68628;BME280;55611;48.602;9.490;2023-02-03T12:00:35;98020;;;9.8;61.5
68628;BME280;55611;48.602;9.490;2023-02-03T12:02:03;98010;;;9.8;62
68628;BME280;55611;48.602;9.490;2023-02-03T12:04:36;98000;;;9.9;62
68628;BME280;55611;48.602;9.490;2023-02-03T12:07:04;97990;;;9.9;62
68628;BME280;55611;48.602;9.490;2023-02-03T12:09:34;97980;;;9.9;62
68628;BME280;55611;48.602;9.490;2023-02-03T12:14:39;97990;;;9.9;61.5
68628;BME280;55611;48.602;9.490;2023-02-03T12:19:38;97960;;;9.7;61.5
68628;BME280;55611;48.602;9.490;2023-02-03T12:22:06;97960;;;9.7;61.5
68628;BME280;55611;48.602;9.490;2023-02-03T12:27:09;97980;;;9.6;61.5
68628;BME280;55611;48.602;9.490;2023-02-03T12:29:39;97980;;;9.7;61.5
68628;BME280;55611;48.602;9.490;2023-02-03T12:32:13;97970;;;9.7;61.5
68628;BME280;55611;48.602;9.490;2023-02-03T12:34:38;97970;;;9.7;61.5
68628;BME280;55611;48.602;9.490;2023-02-03T12:39:39;97970;;;9.7;61.5
68628;BME280;55611;48.602;9.490;2023-02-03T12:42:24;97970;;;9.8;62
68628;BME280;55611;48.602;9.490;2023-02-03T12:44:42;97960;;;9.7;62
68628;BME280;55611;48.602;9.490;2023-02-03T12:48:12;97960;;;9.7;62
68628;BME280;55611;48.602;9.490;2023-02-03T12:49:49;97960;;;9.8;62
68628;BME280;55611;48.602;9.490;2023-02-03T12:52:13;97950;;;9.7;62
68628;BME280;55611;48.602;9.490;2023-02-03T12:54:42;97920;;;9.7;62
68628;BME280;55611;48.602;9.490;2023-02-03T12:59:41;97930;;;9.8;62
68628;BME280;55611;48.602;9.490;2023-02-03T13:02:15;97910;;;9.8;61.5
68628;BME280;55611;48.602;9.490;2023-02-03T13:04:44;97920;;;9.8;61.5
68628;BME280;55611;48.602;9.490;2023-02-03T13:07:15;97900;;;9.8;62
68628;BME280;55611;48.602;9.490;2023-02-03T13:09:47;97890;;;9.8;61.5
68628;BME280;55611;48.602;9.490;2023-02-03T13:12:24;97870;;;9.9;61.5
68628;BME280;55611;48.602;9.490;2023-02-03T13:14:46;97860;;;9.8;61.5
68628;BME280;55611;48.602;9.490;2023-02-03T13:17:24;97900;;;9.7;62
68628;BME280;55611;48.602;9.490;2023-02-03T13:19:47;97900;;;9.9;62
68628;BME280;55611;48.602;9.490;2023-02-03T13:22:16;97890;;;9.9;62
68628;BME280;55611;48.602;9.490;2023-02-03T13:24:48;97870;;;9.8;62
68628;BME280;55611;48.602;9.490;2023-02-03T13:27:35;97880;;;9.8;62
68628;BME280;55611;48.602;9.490;2023-02-03T13:29:49;97870;;;9.8;62
68628;BME280;55611;48.602;9.490;2023-02-03T13:32:22;97890;;;9.8;62
68628;BME280;55611;48.602;9.490;2023-02-03T13:35:01;97890;;;9.8;62
68628;BME280;55611;48.602;9.490;2023-02-03T13:37:24;97900;;;9.8;62
68628;BME280;55611;48.602;9.490;2023-02-03T13:40:23;97900;;;9.8;62
68628;BME280;55611;48.602;9.490;2023-02-03T13:42:22;97890;;;9.8;62
68628;BME280;55611;48.602;9.490;2023-02-03T13:44:53;97890;;;9.8;62
68628;BME280;55611;48.602;9.490;2023-02-03T13:47:22;97880;;;9.7;62
68628;BME280;55611;48.602;9.490;2023-02-03T13:49:53;97870;;;9.7;62
68628;BME280;55611;48.602;9.490;2023-02-03T13:52:23;97870;;;9.8;62
68628;BME280;55611;48.602;9.490;2023-02-03T13:54:52;97840;;;9.8;62
68628;BME280;55611;48.602;9.490;2023-02-03T13:59:53;97850;;;9.7;62
68628;BME280;55611;48.602;9.490;2023-02-03T14:02:29;97870;;;9.7;62
68628;BME280;55611;48.602;9.490;2023-02-03T14:04:55;97860;;;9.8;62
68628;BME280;55611;48.602;9.490;2023-02-03T14:07:27;97860;;;9.9;62
68628;BME280;55611;48.602;9.490;2023-02-03T14:12:30;97880;;;9.8;62
68628;BME280;55611;48.602;9.490;2023-02-03T14:14:58;97870;;;9.8;62
68628;BME280;55611;48.602;9.490;2023-02-03T14:19:58;97880;;;9.8;62
68628;BME280;55611;48.602;9.490;2023-02-03T14:22:28;97880;;;9.8;62
68628;BME280;55611;48.602;9.490;2023-02-03T14:25:03;97890;;;9.8;62
68628;BME280;55611;48.602;9.490;2023-02-03T14:27:30;97890;;;9.8;62
68628;BME280;55611;48.602;9.490;2023-02-03T14:30:05;97880;;;9.8;62
68628;BME280;55611;48.602;9.490;2023-02-03T14:32:46;97880;;;9.9;62
68628;BME280;55611;48.602;9.490;2023-02-03T14:35:01;97900;;;9.8;62
68628;BME280;55611;48.602;9.490;2023-02-03T14:37:31;97890;;;9.8;62
68628;BME280;55611;48.602;9.490;2023-02-03T14:40:07;97900;;;9.8;62
68628;BME280;55611;48.602;9.490;2023-02-03T14:42:51;97890;;;9.8;62
68628;BME280;55611;48.602;9.490;2023-02-03T14:45:13;97870;;;9.8;62
68628;BME280;55611;48.602;9.490;2023-02-03T14:47:38;97880;;;9.8;62
68628;BME280;55611;48.602;9.490;2023-02-03T14:50:15;97890;;;9.8;62
68628;BME280;55611;48.602;9.490;2023-02-03T14:53:10;97880;;;9.8;62
68628;BME280;55611;48.602;9.490;2023-02-03T14:55:10;97870;;;9.8;62
68628;BME280;55611;48.602;9.490;2023-02-03T14:57:44;97830;;;9.8;62
68628;BME280;55611;48.602;9.490;2023-02-03T15:00:07;97850;;;9.8;62
68628;BME280;55611;48.602;9.490;2023-02-03T15:02:39;97870;;;9.8;62
68628;BME280;55611;48.602;9.490;2023-02-03T15:05:37;97870;;;9.8;62
68628;BME280;55611;48.602;9.490;2023-02-03T15:07:40;97870;;;9.8;62
68628;BME280;55611;48.602;9.490;2023-02-03T15:10:12;97880;;;9.8;62
68628;BME280;55611;48.602;9.490;2023-02-03T15:12:43;97870;;;9.8;62
68628;BME280;55611;48.602;9.490;2023-02-03T15:15:13;97890;;;9.8;62